Time;durP1;ratioP1;P1;durP2;ratioP2;P2;SDS_P1;SDS_P2;PMS_P1;PMS_P2;Temp;Humidity;BMP_temperature;BMP_pressure;BME280_temperature;BME280_humidity;BME280_pressure;Samples;Min_cycle;Max_cycle;Signal;HPM_P1;HPM_P2
2021/12/06 00:00:21;;;;;;;3.80;3.50;;;21.30;43.30;;;;;;5085058;27;43447;-63
2021/12/06 00:02:51;;;;;;;4.10;3.70;;;21.30;43.30;;;;;;5076696;27;43581;-63
2021/12/06 00:05:18;;;;;;;3.88;3.58;;;21.30;43.30;;;;;;5071196;27;43779;-62
2021/12/06 00:07:46;;;;;;;4.05;3.72;;;21.30;43.30;;;;;;5043561;27;1193991;-64
2021/12/06 00:10:14;;;;;;;3.97;3.67;;;21.30;43.20;;;;;;5087899;27;43530;-64
2021/12/06 00:12:43;;;;;;;4.07;3.58;;;21.30;43.20;;;;;;5078382;27;43545;-63
2021/12/06 00:15:11;;;;;;;3.55;3.25;;;21.20;43.10;;;;;;5088662;27;45146;-63
2021/12/06 00:17:39;;;;;;;4.10;3.80;;;21.20;43.10;;;;;;5085402;27;43498;-65
2021/12/06 00:20:10;;;;;;;4.53;3.47;;;21.20;43.20;;;;;;5086103;27;44082;-65
2021/12/06 00:22:38;;;;;;;4.35;3.88;;;21.20;43.10;;;;;;5072231;27;43522;-64
2021/12/06 00:25:09;;;;;;;4.43;4.03;;;21.20;43.10;;;;;;5091635;27;45086;-64
2021/12/06 00:27:39;;;;;;;;;;;21.20;43.10;;;;;;5080410;27;43505;-65
2021/12/06 00:30:11;;;;;;;3.60;3.30;;;21.20;43.10;;;;;;5090963;27;44059;-64
2021/12/06 00:32:40;;;;;;;4.20;3.80;;;21.10;43.20;;;;;;5072314;27;43465;-64
2021/12/06 00:35:12;;;;;;;4.50;4.10;;;21.10;43.20;;;;;;5086785;27;45000;-65
2021/12/06 00:37:53;;;;;;;3.88;3.58;;;21.10;43.10;;;;;;5069642;27;43959;-64
2021/12/06 00:40:21;;;;;;;4.03;3.63;;;21.10;43.20;;;;;;5080786;27;43426;-63
2021/12/06 00:42:48;;;;;;;4.03;3.63;;;21.10;43.20;;;;;;5091915;27;43591;-64
2021/12/06 00:45:17;;;;;;;3.78;3.47;;;21.10;43.20;;;;;;5088689;27;44100;-64
2021/12/06 00:47:44;;;;;;;4.40;4.00;;;21.10;43.20;;;;;;5090243;27;43886;-64
2021/12/06 00:50:12;;;;;;;4.00;3.60;;;21.10;43.50;;;;;;5068990;28;43434;-65
2021/12/06 00:52:39;;;;;;;4.05;3.65;;;21.00;43.80;;;;;;5093938;27;43570;-63
2021/12/06 00:55:09;;;;;;;4.38;3.97;;;21.00;43.10;;;;;;5075375;28;44964;-63
2021/12/06 00:57:38;;;;;;;3.97;3.67;;;21.00;43.10;;;;;;5068621;27;43498;-64
2021/12/06 01:00:30;;;;;;;4.40;3.90;;;21.10;43.20;;;;;;5059871;28;43443;-64
2021/12/06 01:02:58;;;;;;;4.10;3.78;;;21.00;43.10;;;;;;5076529;28;43473;-64
2021/12/06 01:05:25;;;;;;;4.05;3.65;;;21.00;43.20;;;;;;5093631;27;43785;-65
2021/12/06 01:07:54;;;;;;;3.83;3.53;;;21.00;43.20;;;;;;5053731;28;43952;-65
2021/12/06 01:10:24;;;;;;;4.15;3.75;;;21.00;43.20;;;;;;5069806;28;44017;-63
2021/12/06 01:12:56;;;;;;;4.13;3.50;;;21.00;43.30;;;;;;5051526;28;43418;-63
2021/12/06 01:15:24;;;;;;;4.25;3.85;;;20.90;43.20;;;;;;5067285;28;44053;-64
2021/12/06 01:17:52;;;;;;;4.90;4.32;;;20.90;43.20;;;;;;5053327;28;43995;-63
2021/12/06 01:20:25;;;;;;;4.30;3.90;;;20.90;43.20;;;;;;5060471;28;43387;-64
2021/12/06 01:22:58;;;;;;;4.10;3.70;;;20.90;43.20;;;;;;5062761;28;43447;-63
2021/12/06 01:31:32;;;;;;;4.50;4.10;;;20.90;43.20;;;;;;5013773;28;43615;-63
2021/12/06 01:39:06;;;;;;;4.70;3.97;;;20.90;43.20;;;;;;5009824;28;44126;-64
2021/12/06 01:39:36;;;;;;;4.32;3.92;;;20.80;43.30;;;;;;5066835;28;43493;-64
2021/12/06 01:42:06;;;;;;;4.63;4.22;;;20.80;43.30;;;;;;5064947;28;43514;-63
2021/12/06 01:44:41;;;;;;;4.47;4.05;;;20.80;43.30;;;;;;5056631;28;43404;-63
2021/12/06 01:47:22;;;;;;;4.50;4.10;;;20.80;43.30;;;;;;5060091;28;44026;-63
2021/12/06 01:50:11;;;;;;;4.38;3.97;;;20.80;43.30;;;;;;5051927;28;43374;-63
2021/12/06 01:52:45;;;;;;;4.43;4.03;;;20.70;43.30;;;;;;5063938;28;43424;-64
2021/12/06 01:55:17;;;;;;;4.40;4.00;;;20.80;43.40;;;;;;5067439;27;43570;-64
2021/12/06 01:57:45;;;;;;;4.53;4.13;;;20.70;43.30;;;;;;5070234;28;44951;-63
2021/12/06 02:00:27;;;;;;;4.47;4.07;;;20.70;43.30;;;;;;5084406;27;44271;-63
2021/12/06 02:03:01;;;;;;;4.70;4.20;;;20.70;43.30;;;;;;5060385;28;43385;-63
2021/12/06 02:05:37;;;;;;;4.25;3.85;;;20.70;43.30;;;;;;5032036;28;43511;-64
2021/12/06 02:08:07;;;;;;;4.45;4.05;;;20.70;43.40;;;;;;5082247;27;44977;-63
2021/12/06 02:10:35;;;;;;;4.38;3.97;;;20.70;43.40;;;;;;5070870;28;44140;-64
2021/12/06 02:13:08;;;;;;;5.03;4.38;;;20.70;43.40;;;;;;5057685;28;43510;-65
2021/12/06 02:15:47;;;;;;;4.30;3.90;;;20.70;43.40;;;;;;5071750;28;43451;-64
2021/12/06 02:18:43;;;;;;;4.55;4.15;;;20.70;43.30;;;;;;5068935;28;45003;-64
2021/12/06 02:21:27;;;;;;;4.65;4.25;;;20.60;43.20;;;;;;5063287;28;43612;-64
2021/12/06 02:23:59;;;;;;;4.78;4.38;;;20.70;43.30;;;;;;5055914;28;43425;-63
2021/12/06 02:26:26;;;;;;;4.45;4.05;;;20.60;43.20;;;;;;5066234;28;43557;-64
2021/12/06 02:28:54;;;;;;;4.93;4.50;;;20.60;43.20;;;;;;5061979;28;44043;-63
2021/12/06 02:31:24;;;;;;;4.43;4.03;;;20.60;43.20;;;;;;5058980;28;43585;-65
2021/12/06 02:33:53;;;;;;;4.53;4.13;;;20.60;43.20;;;;;;5054838;28;43510;-64
2021/12/06 02:36:22;;;;;;;4.57;4.18;;;20.60;43.20;;;;;;5069926;28;43511;-63
2021/12/06 02:38:50;;;;;;;4.75;4.35;;;20.60;43.20;;;;;;5065005;28;44918;-65
2021/12/06 02:41:19;;;;;;;5.05;4.57;;;20.60;43.20;;;;;;5057200;28;43947;-64
2021/12/06 02:43:48;;;;;;;4.53;4.13;;;20.60;43.20;;;;;;5070214;28;43572;-64
2021/12/06 02:46:16;;;;;;;5.35;4.85;;;20.60;43.20;;;;;;5068866;28;43541;-64
2021/12/06 02:48:45;;;;;;;4.38;3.97;;;20.60;43.20;;;;;;5062964;28;44210;-64
2021/12/06 02:51:13;;;;;;;5.00;4.50;;;20.60;43.20;;;;;;5048987;28;43542;-64
2021/12/06 02:53:41;;;;;;;4.72;4.32;;;20.60;43.20;;;;;;5070649;28;43423;-64
2021/12/06 02:56:39;;;;;;;4.85;4.45;;;20.60;43.30;;;;;;5055848;27;43573;-65
2021/12/06 02:59:04;;;;;;;5.20;4.78;;;20.60;43.20;;;;;;5054971;28;44183;-65
2021/12/06 03:01:48;;;;;;;4.30;3.90;;;20.60;43.30;;;;;;5055853;28;44084;-64
2021/12/06 03:04:16;;;;;;;4.35;3.95;;;20.60;43.20;;;;;;5071184;28;43447;-63
2021/12/06 03:06:48;;;;;;;4.80;4.40;;;20.50;43.20;;;;;;5068376;28;43627;-65
2021/12/06 03:09:18;;;;;;;5.22;4.72;;;20.50;43.30;;;;;;5061550;28;44965;-64
2021/12/06 03:11:55;;;;;;;4.68;4.28;;;20.50;43.20;;;;;;5073391;28;43371;-63
2021/12/06 03:14:30;;;;;;;4.80;4.40;;;20.50;43.30;;;;;;5065989;27;43451;-63
2021/12/06 03:17:04;;;;;;;5.22;4.72;;;20.50;43.30;;;;;;5076437;27;43488;-63
2021/12/06 03:19:32;;;;;;;;;;;20.50;43.30;;;;;;5059593;28;44955;-63
2021/12/06 03:22:00;;;;;;;4.53;4.13;;;20.50;43.30;;;;;;5068159;28;43393;-62
2021/12/06 03:24:28;;;;;;;4.93;4.53;;;20.40;43.30;;;;;;5063535;28;43444;-62
2021/12/06 03:26:55;;;;;;;4.75;4.30;;;20.40;43.30;;;;;;5064721;28;43688;-62
2021/12/06 03:29:23;;;;;;;4.93;4.50;;;20.40;43.30;;;;;;5067691;28;44713;-63
2021/12/06 03:31:52;;;;;;;4.80;4.40;;;20.40;43.30;;;;;;5070841;28;43478;-64
2021/12/06 03:34:20;;;;;;;5.20;4.70;;;20.40;43.30;;;;;;5068249;28;43465;-64
2021/12/06 03:36:48;;;;;;;5.05;4.65;;;20.40;43.30;;;;;;5056754;28;44696;-64
2021/12/06 03:39:23;;;;;;;5.25;4.75;;;20.40;43.30;;;;;;5062575;28;44055;-63
2021/12/06 03:41:54;;;;;;;4.78;4.38;;;20.40;43.30;;;;;;5057269;28;43783;-64
2021/12/06 03:44:24;;;;;;;5.28;4.88;;;20.40;43.30;;;;;;5073462;28;43433;-63
2021/12/06 03:47:12;;;;;;;5.05;4.57;;;20.40;43.20;;;;;;5059166;28;43479;-64
2021/12/06 03:49:43;;;;;;;5.03;4.63;;;20.40;43.00;;;;;;5073569;28;45143;-64
2021/12/06 03:52:13;;;;;;;4.80;4.40;;;20.40;43.10;;;;;;5063472;28;44361;-63
2021/12/06 03:54:46;;;;;;;5.28;4.80;;;20.40;43.10;;;;;;5055353;28;43545;-63
2021/12/06 03:57:14;;;;;;;4.72;4.32;;;20.40;43.70;;;;;;5065881;28;43437;-63
2021/12/06 03:59:42;;;;;;;5.50;5.00;;;20.40;43.00;;;;;;5070738;28;44946;-64
2021/12/06 04:02:11;;;;;;;5.00;4.55;;;20.40;43.00;;;;;;5063398;28;43395;-64
2021/12/06 04:04:39;;;;;;;5.03;4.63;;;20.40;42.90;;;;;;5057800;28;43446;-62
2021/12/06 04:07:08;;;;;;;4.90;4.50;;;20.40;42.90;;;;;;5068720;28;43611;-64
2021/12/06 04:09:38;;;;;;;5.22;4.72;;;20.40;42.90;;;;;;5042530;28;43905;-63
2021/12/06 04:12:08;;;;;;;4.97;4.57;;;20.40;43.00;;;;;;5045782;28;43993;-64
2021/12/06 04:14:37;;;;;;;5.03;4.63;;;20.40;42.90;;;;;;5048201;28;43482;-64
2021/12/06 04:17:07;;;;;;;5.18;4.72;;;20.40;42.90;;;;;;5055293;28;43534;-62
2021/12/06 04:19:34;;;;;;;4.90;4.50;;;20.40;42.90;;;;;;5050441;28;45008;-63
2021/12/06 04:22:03;;;;;;;5.07;4.68;;;20.40;43.00;;;;;;5043905;28;44177;-64
2021/12/06 04:24:31;;;;;;;5.20;4.70;;;20.40;43.00;;;;;;5026646;28;43404;-62
2021/12/06 04:27:06;;;;;;;5.15;4.70;;;20.40;42.90;;;;;;5044606;28;43582;-64
2021/12/06 04:29:34;;;;;;;4.93;4.53;;;20.30;43.00;;;;;;5043901;28;44044;-63
2021/12/06 04:32:01;;;;;;;5.20;4.70;;;20.30;42.90;;;;;;5038569;28;45113;-63
2021/12/06 04:34:29;;;;;;;5.28;4.78;;;20.30;42.90;;;;;;5046483;28;43551;-63
2021/12/06 04:36:56;;;;;;;4.88;4.47;;;20.30;43.00;;;;;;5053841;28;43644;-63
2021/12/06 04:39:24;;;;;;;5.35;4.80;;;20.30;42.90;;;;;;5037792;28;44970;-64
2021/12/06 04:41:53;;;;;;;5.10;4.60;;;20.30;42.90;;;;;;5026096;28;43472;-63
2021/12/06 04:44:20;;;;;;;5.03;4.63;;;20.30;42.90;;;;;;5050837;28;43439;-63
2021/12/06 04:46:48;;;;;;;4.82;4.32;;;20.30;42.90;;;;;;5044879;28;43581;-64
2021/12/06 04:49:16;;;;;;;5.00;4.60;;;20.30;42.90;;;;;;5035028;28;45044;-64
2021/12/06 04:51:50;;;;;;;5.07;4.63;;;20.30;42.90;;;;;;5040945;28;43463;-63
2021/12/06 04:54:22;;;;;;;5.03;4.53;;;20.30;42.90;;;;;;5051744;28;43430;-62
2021/12/06 04:56:58;;;;;;;4.93;4.45;;;20.30;43.00;;;;;;5045215;28;43490;-64
2021/12/06 04:59:25;;;;;;;5.07;4.63;;;20.20;43.60;;;;;;5043658;28;44942;-63
2021/12/06 05:01:57;;;;;;;5.43;4.93;;;20.20;42.90;;;;;;5042968;28;43480;-63
2021/12/06 05:04:30;;;;;;;4.88;4.47;;;20.30;43.00;;;;;;5048900;28;43422;-64
2021/12/06 05:07:03;;;;;;;5.38;4.88;;;20.20;42.90;;;;;;5045396;28;43488;-62
2021/12/06 05:09:39;;;;;;;5.22;4.72;;;20.20;42.90;;;;;;5055105;28;44033;-64
2021/12/06 05:12:09;;;;;;;5.20;4.70;;;20.20;43.00;;;;;;5059015;28;43993;-64
2021/12/06 05:14:37;;;;;;;5.38;4.88;;;20.20;42.90;;;;;;5067984;28;43510;-64
2021/12/06 05:17:04;;;;;;;5.25;4.75;;;20.20;42.90;;;;;;5067082;27;43631;-63
2021/12/06 05:19:32;;;;;;;5.78;5.28;;;20.20;43.00;;;;;;5075790;27;45023;-63
2021/12/06 05:22:06;;;;;;;5.90;5.35;;;20.20;42.90;;;;;;5073132;27;43770;-64
2021/12/06 05:24:34;;;;;;;4.85;4.45;;;20.20;42.90;;;;;;5068422;28;43464;-64
2021/12/06 05:27:05;;;;;;;5.22;4.72;;;20.20;42.90;;;;;;5062242;27;43653;-64
2021/12/06 05:29:34;;;;;;;5.05;4.65;;;20.10;43.00;;;;;;5067796;27;44093;-64
2021/12/06 05:32:02;;;;;;;5.43;5.00;;;20.10;43.00;;;;;;5094181;27;44038;-64
2021/12/06 05:34:38;;;;;;;5.40;4.90;;;20.10;43.00;;;;;;5087098;27;43481;-63
2021/12/06 05:37:09;;;;;;;5.63;5.13;;;20.10;43.00;;;;;;5077518;27;44031;-65
2021/12/06 05:39:36;;;;;;;5.38;4.88;;;20.10;43.00;;;;;;5089080;27;44960;-63
2021/12/06 05:42:07;;;;;;;5.40;4.90;;;20.10;42.90;;;;;;5085939;27;43574;-64
2021/12/06 05:44:35;;;;;;;5.57;5.07;;;20.10;43.00;;;;;;5086652;27;43425;-64
2021/12/06 05:47:03;;;;;;;5.35;4.85;;;20.10;43.00;;;;;;5083408;27;43701;-64
2021/12/06 05:49:31;;;;;;;5.40;4.90;;;20.10;43.00;;;;;;5094229;27;44977;-62
2021/12/06 05:51:58;;;;;;;6.00;5.40;;;20.10;43.00;;;;;;5083397;27;43526;-65
2021/12/06 05:54:26;;;;;;;5.47;4.97;;;20.10;43.00;;;;;;5084288;27;43427;-62
2021/12/06 05:56:54;;;;;;;5.88;5.38;;;20.00;42.90;;;;;;5082897;27;43580;-62
2021/12/06 05:59:22;;;;;;;5.72;5.22;;;20.00;43.00;;;;;;5094079;27;44052;-63
2021/12/06 06:01:52;;;;;;;5.72;5.22;;;20.00;43.00;;;;;;5082822;27;43941;-64
2021/12/06 06:04:21;;;;;;;6.00;5.50;;;20.00;43.00;;;;;;5084978;27;43479;-65
2021/12/06 06:06:49;;;;;;;5.88;5.30;;;20.00;43.00;;;;;;5065639;27;43578;-63
2021/12/06 06:09:17;;;;;;;5.57;5.07;;;20.00;43.10;;;;;;5089852;27;44929;-64
2021/12/06 06:11:44;;;;;;;6.32;5.72;;;20.00;43.00;;;;;;5086690;27;43570;-63
2021/12/06 06:14:12;;;;;;;6.68;6.03;;;20.00;43.00;;;;;;5079775;27;44047;-63
2021/12/06 06:16:51;;;;;;;5.65;5.15;;;20.00;43.00;;;;;;5092554;27;43924;-64
2021/12/06 06:19:24;;;;;;;6.53;5.97;;;20.00;43.00;;;;;;5084151;27;44985;-65
2021/12/06 06:21:53;;;;;;;6.47;5.88;;;20.00;43.10;;;;;;5078631;27;43853;-64
2021/12/06 06:24:21;;;;;;;6.32;5.78;;;20.00;43.00;;;;;;5078787;27;43501;-63
2021/12/06 06:26:48;;;;;;;6.85;5.85;;;20.00;43.10;;;;;;5083967;27;43525;-63
2021/12/06 06:29:15;;;;;;;5.88;5.38;;;19.90;43.10;;;;;;5080208;27;44219;-63
2021/12/06 06:31:43;;;;;;;6.68;6.07;;;19.90;43.20;;;;;;5077024;27;43742;-64
2021/12/06 06:34:11;;;;;;;6.20;5.60;;;19.90;43.20;;;;;;5079867;27;43537;-64
2021/12/06 06:36:39;;;;;;;6.75;6.15;;;19.90;43.00;;;;;;5094443;27;43569;-64
2021/12/06 06:39:08;;;;;;;6.75;6.15;;;19.90;43.10;;;;;;5087405;27;44097;-63
2021/12/06 06:41:35;;;;;;;7.10;6.40;;;19.90;43.20;;;;;;5042910;27;44031;-64
2021/12/06 06:44:04;;;;;;;7.07;6.38;;;20.00;43.30;;;;;;5084943;27;44104;-63
2021/12/06 06:46:33;;;;;;;6.45;5.93;;;20.00;43.20;;;;;;5096614;27;43585;-65
2021/12/06 06:49:00;;;;;;;6.80;6.10;;;19.90;43.10;;;;;;5073393;28;43923;-65
2021/12/06 06:51:29;;;;;;;7.13;6.45;;;19.90;43.30;;;;;;5083902;27;43527;-64
2021/12/06 06:53:57;;;;;;;6.30;5.80;;;19.90;43.20;;;;;;5081216;27;43600;-62
2021/12/06 06:56:24;;;;;;;7.32;6.65;;;19.90;43.20;;;;;;5089202;27;43547;-64
2021/12/06 06:58:52;;;;;;;6.70;6.10;;;19.90;43.30;;;;;;5086190;27;45059;-64
2021/12/06 07:01:20;;;;;;;6.72;6.13;;;19.90;43.30;;;;;;5079919;27;43489;-63
2021/12/06 07:03:53;;;;;;;6.70;6.10;;;19.90;43.30;;;;;;5092525;27;43503;-64
2021/12/06 07:06:25;;;;;;;6.45;5.85;;;19.90;43.20;;;;;;5086117;27;43783;-63
2021/12/06 07:08:54;;;;;;;7.05;6.38;;;20.00;43.20;;;;;;5045516;28;44281;-64
2021/12/06 07:11:26;;;;;;;6.97;6.38;;;19.90;43.20;;;;;;5080678;27;43512;-63
2021/12/06 07:13:55;;;;;;;6.38;5.88;;;19.90;43.20;;;;;;5092197;27;43534;-62
2021/12/06 07:16:22;;;;;;;6.82;6.22;;;20.00;43.30;;;;;;5082748;27;43606;-63
2021/12/06 07:18:50;;;;;;;6.50;5.90;;;20.00;43.30;;;;;;5074270;27;44206;-64
2021/12/06 07:21:18;;;;;;;7.05;6.35;;;20.00;43.30;;;;;;5089581;27;44168;-65
2021/12/06 07:23:46;;;;;;;6.93;6.32;;;19.90;43.20;;;;;;5091254;27;43437;-64
2021/12/06 07:26:16;;;;;;;7.07;6.38;;;20.00;43.20;;;;;;5082294;27;43625;-64
2021/12/06 07:28:46;;;;;;;6.82;6.22;;;20.00;43.30;;;;;;5075573;27;43956;-63
2021/12/06 07:31:14;;;;;;;7.15;6.55;;;20.00;43.20;;;;;;5079744;27;43457;-63
2021/12/06 07:33:45;;;;;;;6.50;5.90;;;20.10;43.20;;;;;;5087740;27;43580;-64
2021/12/06 07:36:19;;;;;;;6.25;5.65;;;20.10;43.10;;;;;;5077845;27;43507;-63
2021/12/06 07:38:47;;;;;;;6.30;5.78;;;20.20;43.10;;;;;;5075974;27;44802;-65
2021/12/06 07:41:17;;;;;;;6.55;5.95;;;20.20;43.00;;;;;;5094214;27;43901;-63
2021/12/06 07:43:45;;;;;;;6.18;5.57;;;20.30;43.00;;;;;;5074791;28;43551;-63
2021/12/06 07:46:12;;;;;;;6.85;6.25;;;20.20;42.90;;;;;;5074993;27;44177;-63
2021/12/06 07:48:40;;;;;;;6.50;5.90;;;20.30;42.90;;;;;;5073808;27;44659;-63
2021/12/06 07:51:07;;;;;;;6.40;5.80;;;20.30;42.80;;;;;;5092150;27;43982;-63
2021/12/06 07:53:38;;;;;;;6.25;5.70;;;20.30;42.80;;;;;;5063986;28;43482;-64
2021/12/06 07:56:06;;;;;;;;;;;20.30;42.90;;;;;;5068964;27;43591;-64
2021/12/06 07:58:34;;;;;;;6.40;5.80;;;20.30;42.90;;;;;;5072512;27;45219;-63
2021/12/06 08:01:02;;;;;;;6.30;5.72;;;20.40;43.00;;;;;;5069878;27;43986;-63
2021/12/06 08:03:31;;;;;;;6.22;5.63;;;20.40;43.00;;;;;;5069352;27;43577;-64
2021/12/06 08:06:00;;;;;;;6.35;5.85;;;20.40;42.90;;;;;;5060772;27;43621;-63
2021/12/06 08:08:30;;;;;;;5.95;5.45;;;20.40;42.80;;;;;;5067876;27;44963;-63
2021/12/06 08:11:06;;;;;;;6.50;5.93;;;20.50;42.90;;;;;;5063137;27;44163;-63
2021/12/06 08:13:35;;;;;;;6.28;5.78;;;20.50;42.90;;;;;;5066930;27;43563;-64
2021/12/06 08:16:10;;;;;;;6.28;5.78;;;20.50;43.30;;;;;;5059763;27;43562;-63
2021/12/06 08:18:37;;;;;;;6.43;5.85;;;20.50;42.90;;;;;;5067175;27;44032;-62
2021/12/06 08:21:05;;;;;;;6.35;5.75;;;20.50;42.90;;;;;;5065623;27;44656;-64
2021/12/06 08:23:32;;;;;;;6.35;5.75;;;20.50;42.90;;;;;;5070823;27;43494;-63
2021/12/06 08:26:02;;;;;;;6.97;6.28;;;20.60;42.90;;;;;;5069119;27;44933;-64
2021/12/06 08:28:31;;;;;;;6.45;5.85;;;20.50;42.90;;;;;;5068445;27;44303;-63
2021/12/06 08:30:58;;;;;;;6.40;5.80;;;20.50;43.00;;;;;;5067502;27;44014;-63
2021/12/06 08:33:26;;;;;;;6.05;5.55;;;20.60;42.90;;;;;;5065900;27;43581;-63
2021/12/06 08:35:55;;;;;;;6.35;5.75;;;20.50;42.90;;;;;;5076054;27;43587;-63
2021/12/06 08:38:25;;;;;;;5.95;5.45;;;20.50;42.90;;;;;;5060763;27;44707;-64
2021/12/06 08:40:54;;;;;;;6.40;5.80;;;20.60;42.90;;;;;;5065307;27;43620;-63
2021/12/06 08:43:22;;;;;;;6.25;5.70;;;20.60;42.90;;;;;;5063439;27;43620;-63
2021/12/06 08:45:55;;;;;;;6.50;5.90;;;20.60;42.90;;;;;;5066531;27;43668;-62
2021/12/06 08:48:29;;;;;;;6.00;5.50;;;20.60;42.80;;;;;;5066479;27;43797;-62
2021/12/06 08:50:59;;;;;;;6.65;6.07;;;20.60;42.80;;;;;;5067742;27;44172;-63
2021/12/06 08:53:28;;;;;;;6.07;5.57;;;20.70;42.90;;;;;;5072073;27;43583;-63
2021/12/06 08:55:56;;;;;;;6.10;5.55;;;20.70;42.80;;;;;;5064362;27;44797;-63
2021/12/06 08:58:23;;;;;;;5.82;5.32;;;20.80;42.80;;;;;;5062973;27;44001;-63
2021/12/06 09:00:52;;;;;;;6.82;5.82;;;20.80;42.80;;;;;;5064534;28;43988;-63
2021/12/06 09:03:19;;;;;;;6.55;5.95;;;20.90;42.80;;;;;;5070902;27;43545;-63
2021/12/06 09:05:51;;;;;;;5.88;5.38;;;20.90;42.70;;;;;;5060856;27;43766;-62
2021/12/06 09:08:19;;;;;;;6.75;6.10;;;20.90;42.70;;;;;;5061928;28;45122;-63
2021/12/06 09:10:50;;;;;;;6.40;5.80;;;21.00;42.70;;;;;;5061045;27;44047;-63
2021/12/06 09:13:22;;;;;;;;;;;21.00;42.70;;;;;;5065542;27;43629;-64
2021/12/06 09:15:51;;;;;;;6.28;5.78;;;21.00;42.70;;;;;;5068063;28;43646;-64
2021/12/06 09:18:20;;;;;;;6.88;6.20;;;21.00;42.80;;;;;;5063078;27;44140;-63
2021/12/06 09:20:50;;;;;;;6.90;6.30;;;21.00;42.70;;;;;;5064643;27;44130;-62
2021/12/06 09:23:18;;;;;;;7.53;6.40;;;21.00;42.70;;;;;;5064164;27;43549;-64
2021/12/06 09:25:47;;;;;;;6.70;6.10;;;21.00;42.70;;;;;;5063310;27;43616;-64
2021/12/06 09:28:16;;;;;;;6.75;6.15;;;21.10;42.70;;;;;;5065328;27;45136;-65
2021/12/06 09:30:44;;;;;;;6.22;5.63;;;21.10;42.70;;;;;;5041305;28;43609;-63
2021/12/06 09:33:14;;;;;;;6.10;5.50;;;21.10;42.60;;;;;;5056041;28;43620;-64
2021/12/06 09:35:45;;;;;;;6.27;5.67;;;21.20;42.60;;;;;;5066317;27;43624;-64
2021/12/06 09:38:15;;;;;;;6.68;5.85;;;21.20;42.60;;;;;;5062855;28;44689;-64
2021/12/06 09:40:47;;;;;;;6.45;5.85;;;21.30;42.60;;;;;;5065681;27;43578;-64
2021/12/06 09:43:15;;;;;;;6.40;5.80;;;21.30;42.60;;;;;;5065339;28;43577;-64
2021/12/06 09:45:44;;;;;;;7.05;6.35;;;21.30;42.50;;;;;;5064018;27;43704;-63
2021/12/06 09:48:15;;;;;;;6.47;5.90;;;21.40;42.50;;;;;;5062629;28;44938;-64
2021/12/06 09:50:51;;;;;;;;;;;21.40;42.40;;;;;;5064831;28;44109;-64
2021/12/06 09:53:23;;;;;;;6.75;6.13;;;21.40;42.50;;;;;;5051941;28;43670;-63
2021/12/06 09:55:55;;;;;;;6.97;6.30;;;21.40;42.50;;;;;;5052525;28;43677;-62
2021/12/06 09:58:23;;;;;;;6.55;5.95;;;21.40;42.50;;;;;;5062099;27;43808;-63
2021/12/06 10:00:55;;;;;;;7.03;6.43;;;21.40;42.50;;;;;;5066382;27;43715;-63
2021/12/06 10:03:26;;;;;;;6.72;6.03;;;21.40;42.50;;;;;;5063999;28;43588;-64
2021/12/06 10:06:01;;;;;;;7.28;6.57;;;21.50;42.60;;;;;;5064170;27;43651;-63
2021/12/06 10:08:35;;;;;;;6.43;5.85;;;21.40;42.50;;;;;;5063815;27;44063;-64
2021/12/06 10:11:05;;;;;;;7.15;6.45;;;21.50;42.70;;;;;;5070543;27;44362;-63
2021/12/06 10:13:33;;;;;;;6.95;6.20;;;21.40;42.70;;;;;;5071022;27;43604;-64
2021/12/06 10:16:02;;;;;;;6.72;6.13;;;21.40;42.60;;;;;;5067645;27;43607;-63
2021/12/06 10:18:29;;;;;;;6.65;6.00;;;21.40;42.80;;;;;;5069320;27;43977;-63
2021/12/06 10:20:57;;;;;;;7.38;6.68;;;21.40;42.80;;;;;;5065617;27;44839;-64
2021/12/06 10:23:24;;;;;;;6.70;6.10;;;21.40;42.80;;;;;;5070142;27;43537;-64
2021/12/06 10:25:54;;;;;;;7.50;6.82;;;21.40;42.80;;;;;;5068294;27;43623;-64
2021/12/06 10:28:25;;;;;;;7.07;6.47;;;21.40;42.80;;;;;;5067277;27;43894;-63
2021/12/06 10:30:54;;;;;;;;;;;21.40;42.80;;;;;;5067968;27;43596;-64
2021/12/06 10:33:26;;;;;;;7.07;6.38;;;21.50;42.90;;;;;;5061396;28;43664;-64
2021/12/06 10:35:57;;;;;;;7.05;6.45;;;21.50;42.90;;;;;;5068149;27;44887;-64
2021/12/06 10:38:33;;;;;;;6.72;6.13;;;21.50;42.90;;;;;;5065087;27;44932;-63
2021/12/06 10:41:08;;;;;;;6.82;6.05;;;21.50;42.90;;;;;;5068344;27;44057;-63
2021/12/06 10:43:36;;;;;;;6.60;6.00;;;21.50;42.90;;;;;;5054298;27;43644;-63
2021/12/06 10:46:06;;;;;;;7.03;6.35;;;21.50;42.80;;;;;;5055928;28;44885;-63
2021/12/06 10:48:37;;;;;;;6.65;6.05;;;21.50;42.80;;;;;;5065217;27;43810;-63
2021/12/06 10:51:11;;;;;;;6.68;6.07;;;21.60;42.90;;;;;;5065806;27;43689;-64
2021/12/06 10:53:43;;;;;;;6.45;5.85;;;21.60;42.80;;;;;;5067362;27;43580;-63
2021/12/06 10:56:20;;;;;;;6.22;5.63;;;21.60;42.80;;;;;;5058727;28;43645;-64
2021/12/06 10:58:51;;;;;;;6.55;5.95;;;21.60;42.80;;;;;;5065977;27;43886;-63
2021/12/06 11:01:27;;;;;;;6.20;5.60;;;21.60;42.80;;;;;;5066608;27;43705;-64
2021/12/06 11:03:56;;;;;;;6.20;5.60;;;21.60;42.80;;;;;;5053485;28;44970;-64
2021/12/06 11:06:41;;;;;;;6.60;5.32;;;21.60;42.70;;;;;;5063178;27;43645;-63
2021/12/06 11:09:25;;;;;;;6.40;5.85;;;21.70;42.80;;;;;;5061204;27;44215;-64
2021/12/06 11:11:57;;;;;;;6.10;5.50;;;21.60;42.90;;;;;;5070028;27;43596;-63
2021/12/06 11:14:30;;;;;;;6.03;5.53;;;21.60;42.80;;;;;;5067607;27;43614;-62
2021/12/06 11:17:04;;;;;;;6.50;5.90;;;21.60;42.90;;;;;;5072970;27;44238;-63
2021/12/06 11:19:32;;;;;;;7.07;6.38;;;21.60;43.00;;;;;;5055553;28;44021;-63
2021/12/06 11:22:16;;;;;;;5.65;5.18;;;21.60;43.20;;;;;;5072649;27;44201;-62
2021/12/06 11:24:51;;;;;;;6.30;5.65;;;21.60;43.20;;;;;;5073758;27;43632;-62
2021/12/06 11:27:29;;;;;;;6.20;5.22;;;21.60;43.20;;;;;;5070036;27;44185;-63
2021/12/06 11:30:06;;;;;;;6.38;5.78;;;21.60;43.20;;;;;;5076023;27;43915;-62
2021/12/06 11:32:40;;;;;;;6.18;5.50;;;21.70;43.30;;;;;;5071961;27;43597;-63
2021/12/06 11:35:12;;;;;;;6.13;5.53;;;21.70;43.30;;;;;;5066347;27;43658;-62
2021/12/06 11:37:47;;;;;;;5.78;5.28;;;21.70;43.30;;;;;;5067938;27;44403;-63
2021/12/06 11:40:24;;;;;;;5.70;5.10;;;21.70;43.30;;;;;;5065824;27;44933;-64
2021/12/06 11:43:02;;;;;;;5.50;5.00;;;21.70;43.80;;;;;;5069364;27;43970;-63
2021/12/06 11:45:57;;;;;;;5.70;5.20;;;21.80;43.20;;;;;;5053947;28;44478;-63
2021/12/06 11:48:29;;;;;;;5.22;4.72;;;21.80;43.20;;;;;;5066116;27;44696;-64
2021/12/06 11:50:58;;;;;;;5.80;5.30;;;21.80;43.20;;;;;;5071858;27;45405;-63
2021/12/06 11:53:30;;;;;;;5.80;5.10;;;21.80;43.20;;;;;;5065630;27;43779;-63
2021/12/06 11:56:05;;;;;;;5.10;4.70;;;21.80;43.30;;;;;;5070476;27;43641;-63
2021/12/06 11:58:35;;;;;;;5.70;5.20;;;21.80;43.20;;;;;;5065486;27;43591;-63
2021/12/06 12:01:19;;;;;;;5.32;4.82;;;21.90;43.40;;;;;;5060983;27;43894;-63
2021/12/06 12:03:51;;;;;;;5.40;4.90;;;21.90;43.30;;;;;;5065046;27;43873;-63
2021/12/06 12:06:35;;;;;;;5.53;5.03;;;21.90;43.20;;;;;;5066546;27;43968;-64
2021/12/06 12:09:17;;;;;;;6.18;5.05;;;21.90;43.30;;;;;;5058642;27;43663;-64
2021/12/06 12:11:59;;;;;;;5.28;4.82;;;21.90;43.30;;;;;;5066712;27;43881;-64
2021/12/06 12:14:59;;;;;;;5.97;5.38;;;21.90;43.40;;;;;;5062112;27;43673;-64
2021/12/06 12:17:32;;;;;;;5.75;5.05;;;21.90;43.40;;;;;;5065602;27;44171;-64
2021/12/06 12:20:06;;;;;;;6.10;5.50;;;21.90;43.50;;;;;;5071003;27;44613;-63
2021/12/06 12:22:35;;;;;;;5.40;4.90;;;21.90;43.50;;;;;;5062753;27;44209;-63
2021/12/06 12:25:09;;;;;;;5.35;4.85;;;21.80;43.50;;;;;;5064803;27;44074;-64
2021/12/06 12:28:17;;;;;;;4.93;4.53;;;21.80;43.40;;;;;;5051886;27;43538;-65
2021/12/06 12:30:32;;;;;;;5.00;4.60;;;21.90;43.50;;;;;;5063519;27;44776;-64
2021/12/06 12:33:05;;;;;;;5.10;4.65;;;21.90;43.40;;;;;;5066557;27;44703;-64
2021/12/06 12:35:36;;;;;;;5.47;4.97;;;21.90;43.40;;;;;;5063597;27;44234;-64
2021/12/06 12:38:04;;;;;;;5.55;5.05;;;22.00;43.40;;;;;;5063621;28;43595;-64
2021/12/06 12:40:48;;;;;;;5.22;4.80;;;22.00;43.40;;;;;;5068824;27;43557;-64
2021/12/06 12:43:20;;;;;;;5.45;4.95;;;22.00;43.40;;;;;;5065591;27;44051;-64
2021/12/06 12:45:57;;;;;;;5.07;4.60;;;22.00;43.30;;;;;;5056349;28;44015;-64
2021/12/06 12:48:27;;;;;;;5.70;5.10;;;22.10;43.40;;;;;;5065812;27;43547;-64
2021/12/06 12:51:13;;;;;;;5.10;4.70;;;22.10;43.40;;;;;;5064900;27;43628;-65
2021/12/06 12:54:18;;;;;;;4.88;4.47;;;22.10;43.40;;;;;;5064572;27;45096;-64
2021/12/06 12:56:50;;;;;;;4.75;4.35;;;22.10;43.40;;;;;;5043970;28;43729;-62
2021/12/06 12:59:23;;;;;;;5.10;4.60;;;22.20;43.40;;;;;;5061199;27;43663;-63
2021/12/06 13:02:25;;;;;;;4.70;4.30;;;22.20;43.30;;;;;;5065890;27;43531;-65
2021/12/06 13:04:59;;;;;;;5.05;4.65;;;22.30;43.20;;;;;;5063356;27;45002;-63
2021/12/06 13:07:30;;;;;;;5.30;4.43;;;22.20;43.20;;;;;;5059933;27;43620;-64
2021/12/06 13:10:19;;;;;;;4.57;4.18;;;22.30;43.30;;;;;;5060875;27;43596;-64
2021/12/06 13:12:58;;;;;;;5.15;4.75;;;22.20;43.30;;;;;;5062644;27;43580;-64
2021/12/06 13:16:03;;;;;;;4.68;4.28;;;22.20;43.30;;;;;;5067032;27;44897;-65
2021/12/06 13:19:10;;;;;;;4.95;4.45;;;22.20;43.30;;;;;;5062084;27;43592;-64